createdAt,value
2022-07-26T00:01:18.410Z,99967.06
2022-07-26T00:03:46.672Z,99978.81
2022-07-26T00:06:15.149Z,99980.59
2022-07-26T00:08:44.122Z,99968.66
2022-07-26T00:11:12.473Z,99969.75
2022-07-26T00:13:40.445Z,99978.34
2022-07-26T00:16:10.270Z,99888.75
2022-07-26T00:18:38.456Z,99977.50
2022-07-26T00:21:07.189Z,99976.56
2022-07-26T00:23:35.154Z,99960.03
2022-07-26T00:26:03.382Z,99909.16
2022-07-26T00:28:31.479Z,99936.59
2022-07-26T00:30:59.719Z,99973.28
2022-07-26T00:33:29.151Z,99972.97
2022-07-26T00:35:57.391Z,99975.31
2022-07-26T00:38:25.769Z,99963.22
2022-07-26T00:40:54.396Z,99965.00
2022-07-26T00:43:22.535Z,99903.53
2022-07-26T00:45:51.933Z,99980.81
2022-07-26T00:48:20.103Z,99978.91
2022-07-26T00:50:49.612Z,99984.34
2022-07-26T00:53:20.870Z,99982.06
2022-07-26T00:55:49.682Z,99963.66
2022-07-26T00:58:17.980Z,99988.53
2022-07-26T01:00:46.272Z,99897.59
2022-07-26T01:03:14.527Z,99983.66
2022-07-26T01:05:42.876Z,99849.69
2022-07-26T01:08:12.551Z,99991.22
2022-07-26T01:10:40.481Z,99982.63
2022-07-26T01:13:09.501Z,99990.66
2022-07-26T01:15:37.880Z,99993.19
2022-07-26T01:18:05.973Z,99815.06
2022-07-26T01:20:33.893Z,99998.44
2022-07-26T01:23:03.554Z,99979.72
2022-07-26T01:25:32.942Z,99806.28
2022-07-26T01:28:11.679Z,100002.97
2022-07-26T01:30:49.269Z,99851.13
2022-07-26T01:33:17.326Z,100002.72
2022-07-26T01:35:45.985Z,99897.94
2022-07-26T01:38:15.732Z,99994.50
2022-07-26T01:40:43.801Z,100001.41
2022-07-26T01:43:11.728Z,99917.53
2022-07-26T01:45:39.912Z,100011.47
2022-07-26T01:48:08.837Z,99919.78
2022-07-26T01:50:37.469Z,100006.84
2022-07-26T01:53:06.092Z,99987.91
2022-07-26T01:55:36.405Z,100011.19
2022-07-26T01:58:05.224Z,99929.06
2022-07-26T02:00:34.219Z,100013.50
2022-07-26T02:03:02.458Z,99925.03
2022-07-26T02:05:30.748Z,100012.09
2022-07-26T02:07:58.856Z,100005.06
2022-07-26T02:10:48.659Z,99963.84
2022-07-26T02:13:18.654Z,100014.63
2022-07-26T02:15:47.101Z,99838.75
2022-07-26T02:18:15.459Z,99876.50
2022-07-26T02:20:43.450Z,99866.59
2022-07-26T02:23:11.513Z,100011.63
2022-07-26T02:25:39.694Z,99982.28
2022-07-26T02:28:08.262Z,100001.78
2022-07-26T02:30:38.344Z,99998.66
2022-07-26T02:33:07.735Z,99998.75
2022-07-26T02:35:36.222Z,99957.50
2022-07-26T02:38:05.932Z,99855.03
2022-07-26T02:40:35.205Z,100004.31
2022-07-26T02:43:03.407Z,100029.56
2022-07-26T02:45:31.764Z,100026.09
2022-07-26T02:48:02.256Z,100019.25
2022-07-26T02:50:30.895Z,100032.41
2022-07-26T02:52:59.019Z,99942.22
2022-07-26T02:55:27.894Z,99954.34
2022-07-26T02:57:56.652Z,99864.28
2022-07-26T03:00:26.950Z,100040.44
2022-07-26T03:02:54.877Z,100035.91
2022-07-26T03:05:24.418Z,100033.03
2022-07-26T03:07:52.417Z,100033.59
2022-07-26T03:10:20.671Z,100014.16
2022-07-26T03:12:49.129Z,100051.19
2022-07-26T03:15:17.111Z,99969.97
2022-07-26T03:17:45.081Z,99994.38
2022-07-26T03:20:14.275Z,100043.41
2022-07-26T03:22:43.976Z,99973.31
2022-07-26T03:25:12.381Z,100054.88
2022-07-26T03:27:40.353Z,100043.03
2022-07-26T03:30:09.920Z,100030.94
2022-07-26T03:32:38.140Z,99964.91
2022-07-26T03:35:07.034Z,100022.69
2022-07-26T03:37:44.766Z,100032.06
2022-07-26T03:40:17.203Z,100054.78
2022-07-26T03:42:46.016Z,100007.97
2022-07-26T03:45:14.687Z,100053.38
2022-07-26T03:47:42.992Z,100048.22
2022-07-26T03:50:13.704Z,100054.19
2022-07-26T03:52:42.189Z,100051.47
2022-07-26T03:55:24.943Z,100018.16
2022-07-26T03:57:54.758Z,100074.44
2022-07-26T04:00:22.836Z,100025.03
2022-07-26T04:02:50.893Z,100018.88
2022-07-26T04:05:23.510Z,100076.19
2022-07-26T04:07:53.350Z,100030.13
2022-07-26T04:10:22.758Z,100069.66
2022-07-26T04:12:51.006Z,100067.03
2022-07-26T04:15:21.421Z,100077.66
2022-07-26T04:17:49.820Z,100066.94
2022-07-26T04:20:18.514Z,99989.63
2022-07-26T04:22:46.545Z,100069.53
2022-07-26T04:25:14.855Z,100033.31
2022-07-26T04:27:42.982Z,100045.44
2022-07-26T04:30:15.164Z,100062.97
2022-07-26T04:32:46.707Z,100056.94
2022-07-26T04:35:16.465Z,100063.34
2022-07-26T04:37:45.657Z,100062.22
2022-07-26T04:40:21.402Z,100053.22
2022-07-26T04:42:50.408Z,100061.75
2022-07-26T04:45:18.903Z,99972.44
2022-07-26T04:47:50.945Z,100059.16
2022-07-26T04:50:19.776Z,100019.97
2022-07-26T04:52:47.984Z,100010.22
2022-07-26T04:55:16.187Z,99993.56
2022-07-26T04:57:44.365Z,99827.75
2022-07-26T05:00:22.932Z,100074.31
2022-07-26T05:02:54.575Z,100075.78
2022-07-26T05:05:23.437Z,100058.34
2022-07-26T05:07:55.283Z,100073.28
2022-07-26T05:10:29.342Z,100084.06
2022-07-26T05:12:57.387Z,100021.41
2022-07-26T05:15:26.242Z,100082.22
2022-07-26T05:18:07.008Z,100079.38
2022-07-26T05:20:36.154Z,100076.66
2022-07-26T05:23:04.198Z,100045.84
2022-07-26T05:25:32.333Z,99987.84
2022-07-26T05:28:00.494Z,99986.00
2022-07-26T05:30:28.862Z,100079.13
2022-07-26T05:32:57.201Z,100071.38
2022-07-26T05:35:26.917Z,100078.69
2022-07-26T05:37:55.091Z,100054.94
2022-07-26T05:40:23.850Z,100071.97
2022-07-26T05:42:51.974Z,100068.53
2022-07-26T05:45:20.018Z,100064.44
2022-07-26T05:47:51.160Z,100075.31
2022-07-26T05:50:19.887Z,99982.09
2022-07-26T05:52:49.656Z,100068.78
2022-07-26T05:55:17.681Z,100083.38
2022-07-26T05:57:49.647Z,99924.44
2022-07-26T06:00:18.599Z,100088.56
2022-07-26T06:02:46.708Z,99935.53
2022-07-26T06:05:15.851Z,99952.19
2022-07-26T06:07:44.133Z,100083.63
2022-07-26T06:10:13.755Z,100077.81
2022-07-26T06:12:42.766Z,99982.56
2022-07-26T06:15:15.564Z,100088.63
2022-07-26T06:17:44.196Z,100070.00
2022-07-26T06:20:13.155Z,100102.22
2022-07-26T06:22:41.101Z,100102.22
2022-07-26T06:25:09.753Z,100096.31
2022-07-26T06:27:39.174Z,100110.66
2022-07-26T06:30:09.246Z,100108.72
2022-07-26T06:32:37.479Z,100075.88
2022-07-26T06:35:06.548Z,100039.22
2022-07-26T06:37:37.690Z,100114.91
2022-07-26T06:40:09.375Z,100120.41
2022-07-26T06:42:39.609Z,100096.31
2022-07-26T06:45:08.968Z,100103.47
2022-07-26T06:47:36.899Z,100114.13
2022-07-26T06:50:05.799Z,100066.09
2022-07-26T06:52:34.045Z,100128.00
2022-07-26T06:55:02.495Z,100125.78
2022-07-26T06:57:31.783Z,100130.94
2022-07-26T07:00:01.230Z,100126.06
2022-07-26T07:02:29.235Z,100118.97
2022-07-26T07:04:57.601Z,100100.03
2022-07-26T07:07:26.747Z,100125.34
2022-07-26T07:09:57.097Z,100125.16
2022-07-26T07:12:26.581Z,100124.84
2022-07-26T07:14:54.849Z,100114.53
2022-07-26T07:17:24.525Z,100113.44
2022-07-26T07:19:52.559Z,100111.78
2022-07-26T07:22:20.710Z,100113.84
2022-07-26T07:24:48.886Z,100115.66
2022-07-26T07:27:17.515Z,100120.31
2022-07-26T07:29:45.660Z,100087.34
2022-07-26T07:32:15.942Z,100120.22
2022-07-26T07:34:48.741Z,100130.00
2022-07-26T07:37:17.331Z,100032.63
2022-07-26T07:39:48.684Z,100020.84
2022-07-26T07:42:18.386Z,100128.38
2022-07-26T07:44:46.589Z,100133.53
2022-07-26T07:47:15.044Z,100133.94
2022-07-26T07:49:43.025Z,100140.75
2022-07-26T07:52:12.443Z,100132.75
2022-07-26T07:54:40.748Z,100124.16
2022-07-26T07:57:10.983Z,100134.16
2022-07-26T07:59:42.736Z,100134.59
2022-07-26T08:02:12.828Z,100145.38
2022-07-26T08:04:40.793Z,100132.75
2022-07-26T08:07:08.742Z,100134.59
2022-07-26T08:09:38.188Z,100071.50
2022-07-26T08:12:11.643Z,100135.16
2022-07-26T08:14:39.781Z,100121.34
2022-07-26T08:17:09.527Z,100133.69
2022-07-26T08:19:42.244Z,100140.19
2022-07-26T08:22:11.292Z,100138.53
2022-07-26T08:24:41.300Z,100140.13
2022-07-26T08:27:09.498Z,100126.69
2022-07-26T08:29:37.500Z,100138.25
2022-07-26T08:32:07.759Z,100135.34
2022-07-26T08:34:36.127Z,100140.53
2022-07-26T08:37:17.042Z,99991.22
2022-07-26T08:39:48.410Z,100141.75
2022-07-26T08:42:17.498Z,100158.31
2022-07-26T08:44:52.469Z,100155.44
2022-07-26T08:47:35.431Z,100162.25
2022-07-26T08:50:09.470Z,100156.88
2022-07-26T08:52:40.701Z,100142.25
2022-07-26T08:55:11.690Z,100033.25
2022-07-26T08:57:39.630Z,100171.97
2022-07-26T09:00:24.909Z,100175.66
2022-07-26T09:02:53.563Z,100176.47
2022-07-26T09:05:27.192Z,100174.22
2022-07-26T09:07:55.262Z,100167.28
2022-07-26T09:10:24.953Z,100176.78
2022-07-26T09:12:57.265Z,100168.94
2022-07-26T09:15:27.566Z,100141.59
2022-07-26T09:17:57.412Z,100170.38
2022-07-26T09:20:28.038Z,100168.13
2022-07-26T09:23:03.792Z,100160.66
2022-07-26T09:25:35.992Z,100161.53
2022-07-26T09:28:05.835Z,100170.13
2022-07-26T09:30:34.415Z,100138.75
2022-07-26T09:33:04.828Z,100188.06
2022-07-26T09:35:52.157Z,100181.78
2022-07-26T09:38:21.060Z,100178.50
2022-07-26T09:40:51.688Z,100173.34
2022-07-26T09:43:24.612Z,100185.09
2022-07-26T09:46:08.378Z,100190.22
2022-07-26T09:49:09.339Z,100196.22
2022-07-26T09:51:39.210Z,100193.38
2022-07-26T09:54:07.434Z,100203.44
2022-07-26T09:56:46.288Z,100217.13
2022-07-26T09:59:15.804Z,100207.56
2022-07-26T10:01:44.403Z,100068.19
2022-07-26T10:04:13.833Z,100209.31
2022-07-26T10:06:42.902Z,100245.28
2022-07-26T10:09:12.158Z,100241.34
2022-07-26T10:11:47.143Z,100259.88
2022-07-26T10:14:41.367Z,100269.28
2022-07-26T10:17:46.137Z,100274.25
2022-07-26T10:20:43.989Z,100268.03
2022-07-26T10:23:41.750Z,100276.22
2022-07-26T10:26:13.146Z,100269.00
2022-07-26T10:28:43.281Z,100273.72
2022-07-26T10:31:30.860Z,100279.94
2022-07-26T10:34:00.997Z,100200.28
2022-07-26T10:36:33.521Z,100292.78
2022-07-26T10:39:24.870Z,100276.47
2022-07-26T10:42:00.141Z,100287.34
2022-07-26T10:44:31.586Z,100266.56
2022-07-26T10:47:05.616Z,100288.94
2022-07-26T10:49:36.396Z,100292.31
2022-07-26T10:52:23.367Z,100258.41
2022-07-26T10:55:12.421Z,100298.03
2022-07-26T10:57:42.480Z,100269.94
2022-07-26T11:00:21.619Z,100300.47
2022-07-26T11:02:55.171Z,100298.50
2022-07-26T11:05:28.908Z,100302.56
2022-07-26T11:08:01.682Z,100197.69
2022-07-26T11:10:33.350Z,100315.78
2022-07-26T11:13:10.670Z,100316.31
2022-07-26T11:15:42.137Z,100275.72
2022-07-26T11:18:12.914Z,100318.25
2022-07-26T11:20:42.060Z,100321.72
2022-07-26T11:23:28.099Z,100321.72
2022-07-26T11:26:13.944Z,100334.28
2022-07-26T11:28:57.525Z,100321.91
2022-07-26T11:31:50.652Z,100263.91
2022-07-26T11:34:25.858Z,100341.09
2022-07-26T11:36:56.833Z,100343.41
2022-07-26T11:39:27.090Z,100322.84
2022-07-26T11:41:58.691Z,100344.88
2022-07-26T11:44:27.143Z,100193.63
2022-07-26T11:46:57.967Z,100343.91
2022-07-26T11:50:00.566Z,100309.00
2022-07-26T11:52:21.257Z,100203.69
2022-07-26T11:54:54.500Z,100350.41
2022-07-26T11:57:22.862Z,100346.13
2022-07-26T11:59:51.659Z,100347.81
2022-07-26T12:02:23.597Z,100291.34
2022-07-26T12:05:16.047Z,100351.84
2022-07-26T12:07:55.377Z,100369.50
2022-07-26T12:10:24.349Z,100365.69
2022-07-26T12:13:07.956Z,100372.16
2022-07-26T12:15:46.051Z,100374.13
2022-07-26T12:18:23.470Z,100371.56
2022-07-26T12:21:04.107Z,100302.94
2022-07-26T12:23:42.708Z,100373.66
2022-07-26T12:26:24.876Z,100348.53
2022-07-26T12:28:53.819Z,100365.94
2022-07-26T12:31:30.055Z,100363.34
2022-07-26T12:34:00.097Z,100364.66
2022-07-26T12:36:30.233Z,100363.91
2022-07-26T12:39:01.057Z,100317.84
2022-07-26T12:41:34.335Z,100366.66
2022-07-26T12:44:03.126Z,100365.00
2022-07-26T12:46:33.821Z,100270.75
2022-07-26T12:49:04.905Z,100360.00
2022-07-26T12:51:33.512Z,100354.06
2022-07-26T12:54:02.011Z,100279.66
2022-07-26T12:56:30.394Z,100301.00
2022-07-26T12:59:01.399Z,100344.19
2022-07-26T13:01:31.687Z,100358.72
2022-07-26T13:04:00.169Z,100369.09
2022-07-26T13:06:29.667Z,100371.88
2022-07-26T13:08:57.793Z,100206.31
2022-07-26T13:11:26.834Z,100237.75
2022-07-26T13:13:55.794Z,100354.44
2022-07-26T13:16:24.296Z,100376.94
2022-07-26T13:18:52.771Z,100391.25
2022-07-26T13:21:20.904Z,100380.09
2022-07-26T13:23:50.375Z,100380.66
2022-07-26T13:26:18.366Z,100341.44
2022-07-26T13:28:49.808Z,100383.50
2022-07-26T13:31:18.769Z,100329.88
2022-07-26T13:33:47.264Z,100391.53
2022-07-26T13:36:15.207Z,100371.78
2022-07-26T13:38:43.338Z,100384.47
2022-07-26T13:41:12.797Z,100381.09
2022-07-26T13:43:40.848Z,100368.78
2022-07-26T13:46:08.982Z,100383.09
2022-07-26T13:48:37.339Z,100378.53
2022-07-26T13:51:06.104Z,100348.44
2022-07-26T13:53:34.206Z,100234.03
2022-07-26T13:56:02.253Z,100381.72
2022-07-26T13:58:32.991Z,100382.94
2022-07-26T14:01:02.873Z,100355.22
2022-07-26T14:03:35.315Z,100316.75
2022-07-26T14:06:03.882Z,100210.69
2022-07-26T14:08:31.913Z,100392.44
2022-07-26T14:11:00.329Z,100319.38
2022-07-26T14:13:28.576Z,100282.31
2022-07-26T14:15:58.091Z,100395.75
2022-07-26T14:18:26.267Z,100403.69
2022-07-26T14:20:54.241Z,100316.47
2022-07-26T14:23:22.563Z,100407.75
2022-07-26T14:25:50.569Z,100398.56
2022-07-26T14:28:18.539Z,100401.13
2022-07-26T14:30:46.697Z,100403.41
2022-07-26T14:33:16.399Z,100387.22
2022-07-26T14:35:45.082Z,100326.19
2022-07-26T14:38:16.964Z,100232.47
2022-07-26T14:40:48.975Z,100388.72
2022-07-26T14:43:17.158Z,100321.50
2022-07-26T14:45:48.103Z,100399.75
2022-07-26T14:48:37.644Z,100423.22
2022-07-26T14:51:09.542Z,100284.03
2022-07-26T14:53:38.095Z,100428.44
2022-07-26T14:56:06.545Z,100442.66
2022-07-26T14:58:34.581Z,100397.69
2022-07-26T15:01:03.005Z,100336.44
2022-07-26T15:03:34.218Z,100433.44
2022-07-26T15:06:02.638Z,100457.94
2022-07-26T15:08:30.687Z,100433.94
2022-07-26T15:10:58.827Z,100387.59
2022-07-26T15:13:27.285Z,100455.75
2022-07-26T15:15:56.426Z,100456.75
2022-07-26T15:18:24.579Z,100466.59
2022-07-26T15:20:54.035Z,100469.25
2022-07-26T15:23:22.175Z,100473.25
2022-07-26T15:25:50.634Z,100386.06
2022-07-26T15:28:19.754Z,100401.47
2022-07-26T15:30:47.835Z,100451.09
2022-07-26T15:33:15.845Z,100475.88
2022-07-26T15:35:43.885Z,100478.91
2022-07-26T15:38:13.370Z,100480.53
2022-07-26T15:40:41.524Z,100480.41
2022-07-26T15:43:09.889Z,100379.97
2022-07-26T15:45:41.070Z,100486.38
2022-07-26T15:48:16.034Z,100480.97
2022-07-26T15:50:46.456Z,100453.78
2022-07-26T15:53:17.841Z,100462.03
2022-07-26T15:55:45.935Z,100441.31
2022-07-26T15:58:14.678Z,100455.88
2022-07-26T16:00:44.128Z,100451.16
2022-07-26T16:03:12.919Z,100459.75
2022-07-26T16:05:40.987Z,100434.66
2022-07-26T16:08:09.106Z,100438.22
2022-07-26T16:10:38.673Z,100410.66
2022-07-26T16:13:06.947Z,100344.50
2022-07-26T16:15:35.140Z,100414.09
2022-07-26T16:18:06.509Z,100422.28
2022-07-26T16:20:34.764Z,100425.81
2022-07-26T16:23:02.993Z,100414.91
2022-07-26T16:25:31.006Z,100344.97
2022-07-26T16:28:00.875Z,100365.63
2022-07-26T16:30:29.077Z,100439.72
2022-07-26T16:32:57.281Z,100431.75
2022-07-26T16:35:26.468Z,100295.56
2022-07-26T16:37:54.456Z,100410.66
2022-07-26T16:40:22.671Z,100419.81
2022-07-26T16:42:50.680Z,100437.66
2022-07-26T16:45:20.493Z,100432.97
2022-07-26T16:47:48.702Z,100308.25
2022-07-26T16:50:27.258Z,100405.72
2022-07-26T16:52:56.331Z,100439.28
2022-07-26T16:55:24.659Z,100350.47
2022-07-26T16:57:52.569Z,100427.41
2022-07-26T17:00:22.376Z,100440.81
2022-07-26T17:02:50.759Z,100349.28
2022-07-26T17:05:19.001Z,100360.22
2022-07-26T17:07:47.076Z,100433.56
2022-07-26T17:10:15.155Z,100426.06
2022-07-26T17:12:43.663Z,100439.44
2022-07-26T17:15:12.973Z,100436.63
2022-07-26T17:17:46.904Z,100433.31
2022-07-26T17:20:16.879Z,100433.78
2022-07-26T17:22:44.924Z,100434.16
2022-07-26T17:25:13.095Z,100441.16
2022-07-26T17:27:41.488Z,100430.41
2022-07-26T17:30:10.791Z,100435.19
2022-07-26T17:32:39.326Z,100247.63
2022-07-26T17:35:10.378Z,100406.47
2022-07-26T17:37:38.555Z,100427.31
2022-07-26T17:40:09.623Z,100364.88
2022-07-26T17:42:38.216Z,100425.75
2022-07-26T17:45:08.294Z,100439.31
2022-07-26T17:47:36.620Z,100439.69
2022-07-26T17:50:35.136Z,100355.91
2022-07-26T17:52:56.775Z,100436.16
2022-07-26T17:55:25.392Z,100442.13
2022-07-26T17:57:53.686Z,100363.16
2022-07-26T18:00:23.311Z,100279.66
2022-07-26T18:02:55.111Z,100443.56
2022-07-26T18:05:27.286Z,100444.47
2022-07-26T18:08:02.170Z,100445.91
2022-07-26T18:10:30.163Z,100444.25
2022-07-26T18:12:58.171Z,100254.81
2022-07-26T18:15:26.341Z,100283.56
2022-07-26T18:17:54.493Z,100304.25
2022-07-26T18:20:24.423Z,100441.78
2022-07-26T18:22:53.746Z,100438.91
2022-07-26T18:25:23.466Z,100379.53
2022-07-26T18:27:51.579Z,100348.06
2022-07-26T18:30:19.585Z,100449.78
2022-07-26T18:32:47.655Z,100288.63
2022-07-26T18:35:15.744Z,100283.91
2022-07-26T18:37:44.037Z,100450.91
2022-07-26T18:40:12.414Z,100365.94
2022-07-26T18:42:41.904Z,100406.72
2022-07-26T18:45:10.671Z,100415.19
2022-07-26T18:47:38.699Z,100310.38
2022-07-26T18:50:08.178Z,100459.28
2022-07-26T18:52:36.915Z,100419.63
2022-07-26T18:55:07.702Z,100453.97
2022-07-26T18:57:36.590Z,100456.03
2022-07-26T19:00:08.643Z,100449.53
2022-07-26T19:02:36.745Z,100464.66
2022-07-26T19:05:06.042Z,100433.25
2022-07-26T19:07:34.543Z,100476.03
2022-07-26T19:10:02.601Z,100472.19
2022-07-26T19:12:30.844Z,100474.75
2022-07-26T19:14:59.997Z,100454.97
2022-07-26T19:17:31.706Z,100470.38
2022-07-26T19:20:01.318Z,100480.69
2022-07-26T19:22:30.467Z,100395.56
2022-07-26T19:24:58.580Z,100495.50
2022-07-26T19:27:27.891Z,100484.22
2022-07-26T19:29:57.050Z,100330.13
2022-07-26T19:32:29.062Z,100498.09
2022-07-26T19:35:01.405Z,100500.72
2022-07-26T19:37:29.736Z,100490.31
2022-07-26T19:40:00.678Z,100486.59
2022-07-26T19:42:31.030Z,100521.38
2022-07-26T19:44:59.756Z,100511.19
2022-07-26T19:47:29.765Z,100496.78
2022-07-26T19:49:58.826Z,100389.13
2022-07-26T19:52:28.946Z,100514.94
2022-07-26T19:54:57.265Z,100501.34
2022-07-26T19:57:25.339Z,100515.16
2022-07-26T19:59:54.337Z,100494.88
2022-07-26T20:02:22.900Z,100403.09
2022-07-26T20:04:51.275Z,100518.25
2022-07-26T20:07:20.607Z,100418.91
2022-07-26T20:09:51.296Z,100513.69
2022-07-26T20:12:20.588Z,100516.44
2022-07-26T20:14:48.854Z,100320.38
2022-07-26T20:17:17.442Z,100517.69
2022-07-26T20:19:45.773Z,100464.28
2022-07-26T20:22:14.114Z,100531.50
2022-07-26T20:24:42.266Z,100507.28
2022-07-26T20:27:12.076Z,100531.50
2022-07-26T20:29:40.443Z,100530.63
2022-07-26T20:32:08.884Z,100353.78
2022-07-26T20:34:37.103Z,100420.00
2022-07-26T20:37:05.391Z,100535.81
2022-07-26T20:39:34.838Z,100530.81
2022-07-26T20:42:03.895Z,100533.19
2022-07-26T20:44:39.623Z,100537.44
2022-07-26T20:47:14.389Z,100543.19
2022-07-26T20:49:42.897Z,100548.94
2022-07-26T20:52:11.172Z,100529.66
2022-07-26T20:54:39.229Z,100549.00
2022-07-26T20:57:07.488Z,100523.13
2022-07-26T20:59:38.400Z,100558.41
2022-07-26T21:02:06.950Z,100549.44
2022-07-26T21:04:35.024Z,100446.91
2022-07-26T21:07:03.282Z,100574.50
2022-07-26T21:09:31.290Z,100498.94
2022-07-26T21:11:59.391Z,100567.50
2022-07-26T21:14:27.614Z,100564.91
2022-07-26T21:16:57.182Z,100573.44
2022-07-26T21:19:25.335Z,100584.19
2022-07-26T21:21:54.612Z,100579.75
2022-07-26T21:24:22.658Z,100592.44
2022-07-26T21:26:51.025Z,100530.19
2022-07-26T21:29:19.043Z,100587.53
2022-07-26T21:31:47.149Z,100585.84
2022-07-26T21:34:16.965Z,100553.34
2022-07-26T21:36:45.015Z,100590.09
2022-07-26T21:39:14.019Z,100529.06
2022-07-26T21:41:42.545Z,100592.38
2022-07-26T21:44:10.805Z,100597.06
2022-07-26T21:46:39.203Z,100593.59
2022-07-26T21:49:07.632Z,100490.16
2022-07-26T21:51:37.306Z,100545.47
2022-07-26T21:54:05.370Z,100561.59
2022-07-26T21:56:33.892Z,100582.50
2022-07-26T21:59:02.102Z,100562.56
2022-07-26T22:01:30.192Z,100542.88
2022-07-26T22:03:58.369Z,100593.53
2022-07-26T22:06:26.507Z,100591.59
2022-07-26T22:08:56.170Z,100595.44
2022-07-26T22:11:24.544Z,100601.72
2022-07-26T22:13:52.973Z,100463.00
2022-07-26T22:16:21.007Z,100430.13
2022-07-26T22:18:49.383Z,100376.22
2022-07-26T22:21:17.398Z,100607.81
2022-07-26T22:23:45.817Z,100608.09
2022-07-26T22:26:15.578Z,100610.63
2022-07-26T22:28:43.567Z,100544.31
2022-07-26T22:31:11.724Z,100622.44
2022-07-26T22:33:39.747Z,100343.69
2022-07-26T22:36:09.572Z,100617.09
2022-07-26T22:38:37.773Z,100537.00
2022-07-26T22:41:05.727Z,100608.13
2022-07-26T22:43:35.288Z,100620.84
2022-07-26T22:46:03.360Z,100543.31
2022-07-26T22:48:33.087Z,100592.25
2022-07-26T22:51:04.101Z,100612.31
2022-07-26T22:53:32.325Z,100591.22
2022-07-26T22:56:00.296Z,100507.34
2022-07-26T22:58:28.389Z,100581.81
2022-07-26T23:00:58.173Z,100533.63
2022-07-26T23:03:26.209Z,100526.94
2022-07-26T23:05:56.814Z,100505.38
2022-07-26T23:11:12.707Z,100510.97
2022-07-26T23:13:41.007Z,100439.47
2022-07-26T23:16:10.425Z,100567.09
2022-07-26T23:18:38.830Z,100571.28
2022-07-26T23:21:07.320Z,100615.75
2022-07-26T23:23:35.334Z,100623.63
2022-07-26T23:26:03.515Z,100623.63
2022-07-26T23:28:35.887Z,100629.47
2022-07-26T23:31:19.951Z,100594.03
2022-07-26T23:33:51.612Z,100521.19
2022-07-26T23:36:23.889Z,100620.13
2022-07-26T23:38:52.096Z,100612.09
2022-07-26T23:41:20.238Z,100616.56
2022-07-26T23:43:48.538Z,100613.84
2022-07-26T23:46:18.594Z,100623.50
2022-07-26T23:48:47.170Z,100559.84
2022-07-26T23:51:15.531Z,100435.75
2022-07-26T23:53:43.715Z,100523.16
2022-07-26T23:56:12.043Z,100618.63
2022-07-26T23:58:40.059Z,100607.97
